createdAt,value
2019-05-02T00:03:30.433Z,12.17
2019-05-02T00:08:36.099Z,12.19
2019-05-02T00:13:41.862Z,12.09
2019-05-02T00:18:47.279Z,12.19
2019-05-02T00:23:52.660Z,12.05
2019-05-02T00:28:58.017Z,12.06
2019-05-02T00:34:03.489Z,11.79
2019-05-02T00:39:13.846Z,11.86
2019-05-02T00:44:18.252Z,11.85
2019-05-02T00:49:23.654Z,11.88
2019-05-02T00:54:29.115Z,11.78
2019-05-02T00:59:37.807Z,11.89
2019-05-02T01:04:43.286Z,11.72
2019-05-02T01:09:48.949Z,11.50
2019-05-02T01:14:54.618Z,11.44
2019-05-02T01:20:00.153Z,11.36
2019-05-02T01:25:06.214Z,11.51
2019-05-02T01:30:25.207Z,11.38
2019-05-02T01:35:38.809Z,11.34
2019-05-02T01:40:53.314Z,11.26
2019-05-02T01:45:55.375Z,11.31
2019-05-02T01:51:04.663Z,11.12
2019-05-02T01:56:07.940Z,11.20
2019-05-02T02:01:16.228Z,11.10
2019-05-02T02:06:20.233Z,11.15
2019-05-02T02:11:28.492Z,11.12
2019-05-02T02:16:35.212Z,11.08
2019-05-02T02:22:02.761Z,11.02
2019-05-02T02:27:07.203Z,10.89
2019-05-02T02:32:12.608Z,11.19
2019-05-02T02:37:19.378Z,10.96
2019-05-02T02:42:31.451Z,11.12
2019-05-02T02:47:32.089Z,10.93
2019-05-02T02:52:44.405Z,10.88
2019-05-02T02:57:44.432Z,10.92
2019-05-02T03:02:50.143Z,10.87
2019-05-02T03:07:59.772Z,10.96
2019-05-02T03:13:21.675Z,10.73
2019-05-02T03:18:39.989Z,10.74
2019-05-02T03:23:34.789Z,10.70
2019-05-02T03:28:41.679Z,10.80
2019-05-02T03:34:00.149Z,10.77
2019-05-02T03:38:54.888Z,10.64
2019-05-02T03:44:10.537Z,10.73
2019-05-02T03:49:09.701Z,10.72
2019-05-02T03:54:19.846Z,10.71
2019-05-02T03:59:37.512Z,10.65
2019-05-02T04:04:31.964Z,10.81
2019-05-02T04:09:42.151Z,10.69
2019-05-02T04:14:47.455Z,10.76
2019-05-02T04:19:53.227Z,10.87
2019-05-02T04:24:58.850Z,10.75
2019-05-02T04:30:11.366Z,10.61
2019-05-02T04:35:13.064Z,10.80
2019-05-02T04:40:19.098Z,10.69
2019-05-02T04:45:29.243Z,10.70
2019-05-02T04:50:31.685Z,10.47
2019-05-02T04:55:38.040Z,10.63
2019-05-02T05:00:45.010Z,10.49
2019-05-02T05:05:51.707Z,10.99
2019-05-02T05:10:57.435Z,11.07
2019-05-02T05:16:08.132Z,11.36
2019-05-02T05:21:12.852Z,10.75
2019-05-02T05:26:33.895Z,10.83
2019-05-02T05:31:38.348Z,10.52
2019-05-02T05:36:44.100Z,10.73
2019-05-02T05:41:53.595Z,10.34
2019-05-02T05:47:02.225Z,10.67
2019-05-02T05:52:10.372Z,10.52
2019-05-02T05:57:17.426Z,10.55
2019-05-02T06:02:23.098Z,10.83
2019-05-02T06:07:32.835Z,11.04
2019-05-02T06:12:35.935Z,10.74
2019-05-02T06:17:42.710Z,11.19
2019-05-02T06:22:48.485Z,10.87
2019-05-02T06:27:54.718Z,12.13
2019-05-02T06:33:01.416Z,11.92
2019-05-02T06:38:08.125Z,11.96
2019-05-02T06:43:18.943Z,11.87
2019-05-02T06:48:42.466Z,11.64
2019-05-02T06:53:54.352Z,11.67
2019-05-02T06:59:17.877Z,12.17
2019-05-02T07:04:23.091Z,12.21
2019-05-02T07:09:40.590Z,12.36
2019-05-02T07:14:37.198Z,11.91
2019-05-02T07:19:47.052Z,12.48
2019-05-02T07:24:54.907Z,12.38
2019-05-02T07:30:15.465Z,13.09
2019-05-02T07:35:28.188Z,14.00
2019-05-02T07:40:42.543Z,12.77
2019-05-02T07:45:57.522Z,13.37
2019-05-02T07:51:06.810Z,12.93
2019-05-02T07:56:17.012Z,13.69
2019-05-02T08:01:19.537Z,13.92
2019-05-02T08:06:46.463Z,14.15
2019-05-02T08:12:39.192Z,14.14
2019-05-02T08:18:42.093Z,14.28
2019-05-02T08:24:21.917Z,13.99
2019-05-02T08:29:42.179Z,14.09
2019-05-02T08:35:19.476Z,14.08
2019-05-02T08:40:47.895Z,14.36
2019-05-02T08:46:09.417Z,15.14
2019-05-02T08:51:24.535Z,14.08
2019-05-02T08:56:42.396Z,14.75
2019-05-02T09:01:56.439Z,14.45
2019-05-02T09:07:09.684Z,14.63
2019-05-02T09:12:31.970Z,14.52
2019-05-02T09:17:56.107Z,15.18
2019-05-02T09:23:09.459Z,15.31
2019-05-02T09:28:26.563Z,14.72
2019-05-02T09:33:45.210Z,15.07
2019-05-02T09:38:57.655Z,14.95
2019-05-02T09:44:19.113Z,15.52
2019-05-02T09:49:34.770Z,15.19
2019-05-02T09:54:47.832Z,15.18
2019-05-02T10:00:04.626Z,15.09
2019-05-02T10:05:19.519Z,15.28
2019-05-02T10:10:44.285Z,16.24
2019-05-02T10:15:58.013Z,16.89
2019-05-02T10:21:26.393Z,16.96
2019-05-02T10:27:04.001Z,15.71
2019-05-02T10:32:26.240Z,16.40
2019-05-02T10:37:47.615Z,16.68
2019-05-02T10:43:07.765Z,16.87
2019-05-02T10:48:37.223Z,16.10
2019-05-02T10:54:20.671Z,16.78
2019-05-02T10:59:37.544Z,16.51
2019-05-02T11:05:05.925Z,17.98
2019-05-02T11:10:27.879Z,17.18
2019-05-02T11:16:09.759Z,17.38
2019-05-02T11:21:26.344Z,17.79
2019-05-02T11:26:43.029Z,17.20
2019-05-02T11:31:49.706Z,17.61
2019-05-02T11:36:55.355Z,17.63
2019-05-02T11:42:02.073Z,18.00
2019-05-02T11:47:08.808Z,17.30
2019-05-02T11:52:14.266Z,17.78
2019-05-02T11:57:28.472Z,18.01
2019-05-02T12:08:52.790Z,18.46
2019-05-02T12:14:09.252Z,17.57
2019-05-02T12:19:23.722Z,17.52
2019-05-02T12:24:45.266Z,16.93
2019-05-02T12:35:26.269Z,18.90
2019-05-02T12:40:32.545Z,18.24
2019-05-02T12:45:48.982Z,18.24
2019-05-02T12:50:55.203Z,17.81
2019-05-02T12:56:02.233Z,17.33
2019-05-02T13:01:12.255Z,18.42
2019-05-02T13:06:22.006Z,18.83
2019-05-02T13:11:45.928Z,18.06
2019-05-02T13:17:01.367Z,17.35
2019-05-02T13:22:45.160Z,17.67
2019-05-02T13:28:17.047Z,18.03
2019-05-02T13:33:58.635Z,17.93
2019-05-02T13:39:22.006Z,17.66
2019-05-02T13:44:44.566Z,18.49
2019-05-02T13:49:59.124Z,18.65
2019-05-02T13:55:44.394Z,17.87
2019-05-02T14:01:03.417Z,18.10
2019-05-02T14:06:22.019Z,17.87
2019-05-02T14:11:50.164Z,18.13
2019-05-02T14:17:27.629Z,17.92
2019-05-02T14:22:52.755Z,18.40
2019-05-02T14:28:14.256Z,18.05
2019-05-02T14:33:33.226Z,18.48
2019-05-02T14:38:41.900Z,18.85
2019-05-02T14:44:09.054Z,17.88
2019-05-02T14:50:02.261Z,18.16
2019-05-02T14:55:25.582Z,17.77
2019-05-02T15:00:47.429Z,17.60
2019-05-02T15:06:04.197Z,17.85
2019-05-02T15:11:30.580Z,17.89
2019-05-02T15:16:45.340Z,17.61
2019-05-02T15:22:04.471Z,17.30
2019-05-02T15:27:17.693Z,17.26
2019-05-02T15:32:53.499Z,17.25
2019-05-02T15:38:08.273Z,16.88
2019-05-02T15:43:15.363Z,16.86
2019-05-02T15:48:27.488Z,16.38
2019-05-02T15:54:02.664Z,17.11
2019-05-02T15:58:58.003Z,16.97
2019-05-02T16:04:06.372Z,17.35
2019-05-02T16:09:11.963Z,17.01
2019-05-02T16:14:20.518Z,17.09
2019-05-02T16:19:29.396Z,17.43
2019-05-02T16:24:36.012Z,16.61
2019-05-02T16:29:43.824Z,16.57
2019-05-02T16:35:07.269Z,16.62
2019-05-02T16:40:12.017Z,16.25
2019-05-02T16:45:22.243Z,16.07
2019-05-02T16:50:34.714Z,15.95
2019-05-02T16:55:36.025Z,16.23
2019-05-02T17:00:45.557Z,16.19
2019-05-02T17:05:50.074Z,16.33
2019-05-02T17:10:59.395Z,16.10
2019-05-02T17:16:13.147Z,16.31
2019-05-02T17:21:13.977Z,15.90
2019-05-02T17:26:19.916Z,15.72
2019-05-02T17:31:25.635Z,16.03
2019-05-02T17:36:32.512Z,15.52
2019-05-02T17:41:42.358Z,15.51
2019-05-02T17:46:50.798Z,15.37
2019-05-02T17:52:20.866Z,15.72
2019-05-02T17:57:28.574Z,15.29
2019-05-02T18:02:33.940Z,15.45
2019-05-02T18:07:41.847Z,15.33
2019-05-02T18:12:55.869Z,15.26
2019-05-02T18:17:59.718Z,15.35
2019-05-02T18:23:05.748Z,14.91
2019-05-02T18:28:14.031Z,15.02
2019-05-02T18:33:17.553Z,14.86
2019-05-02T18:38:23.162Z,15.07
2019-05-02T18:43:28.799Z,15.09
2019-05-02T18:48:36.602Z,15.26
2019-05-02T18:53:43.141Z,15.22
2019-05-02T18:58:48.718Z,15.08
2019-05-02T19:03:56.326Z,14.86
2019-05-02T19:09:06.532Z,14.68
2019-05-02T19:14:16.622Z,14.52
2019-05-02T19:19:22.608Z,13.96
2019-05-02T19:24:32.883Z,13.43
2019-05-02T19:29:36.637Z,13.62
2019-05-02T19:34:42.105Z,13.92
2019-05-02T19:39:52.403Z,14.18
2019-05-02T19:45:03.675Z,13.43
2019-05-02T19:50:07.600Z,13.26
2019-05-02T19:55:19.906Z,13.44
2019-05-02T20:00:22.166Z,13.23
2019-05-02T20:05:32.561Z,13.10
2019-05-02T20:10:42.348Z,13.24
2019-05-02T20:16:06.507Z,13.20
2019-05-02T20:21:32.539Z,12.68
2019-05-02T20:26:37.806Z,12.79
2019-05-02T20:31:43.653Z,12.43
2019-05-02T20:36:49.136Z,12.29
2019-05-02T20:41:54.634Z,12.26
2019-05-02T20:47:02.577Z,12.03
2019-05-02T20:52:08.477Z,11.65
2019-05-02T20:57:14.055Z,11.61
2019-05-02T21:02:19.641Z,11.54
2019-05-02T21:07:33.057Z,11.54
2019-05-02T21:12:38.719Z,11.73
2019-05-02T21:17:46.106Z,11.90
2019-05-02T21:22:52.930Z,11.92
2019-05-02T21:27:59.968Z,11.88
2019-05-02T21:33:06.728Z,11.79
2019-05-02T21:38:13.847Z,11.37
2019-05-02T21:43:19.450Z,11.28
2019-05-02T21:48:26.593Z,11.25
2019-05-02T21:53:56.020Z,11.42
2019-05-02T21:59:06.294Z,11.64
2019-05-02T22:04:13.329Z,11.00
2019-05-02T22:09:19.130Z,10.87
2019-05-02T22:14:24.511Z,10.96
2019-05-02T22:19:29.907Z,11.16
2019-05-02T22:24:35.602Z,11.12
2019-05-02T22:29:42.898Z,11.00
2019-05-02T22:34:48.407Z,11.30
2019-05-02T22:39:58.425Z,10.77
2019-05-02T22:45:04.590Z,11.00
2019-05-02T22:50:13.880Z,10.91
2019-05-02T22:55:18.056Z,10.88
2019-05-02T23:00:23.614Z,10.53
2019-05-02T23:05:28.932Z,10.61
2019-05-02T23:10:34.522Z,10.70
2019-05-02T23:15:40.009Z,10.36
2019-05-02T23:20:45.293Z,10.35
2019-05-02T23:26:08.982Z,10.55
2019-05-02T23:31:14.436Z,10.34
2019-05-02T23:36:22.212Z,10.41
2019-05-02T23:41:27.828Z,10.97
2019-05-02T23:46:34.339Z,10.52
2019-05-02T23:51:39.818Z,10.74
2019-05-02T23:56:45.254Z,10.50
